sensor_id;sensor_type;location;lat;lon;timestamp;P1;durP1;ratioP1;P2;durP2;ratioP2
28844;SDS011;15976;47.938;7.758;2023-02-04T00:02:06;5.07;;;2.22;;
28844;SDS011;15976;47.938;7.758;2023-02-04T00:04:33;3.60;;;2.30;;
28844;SDS011;15976;47.938;7.758;2023-02-04T00:07:00;4.40;;;1.92;;
28844;SDS011;15976;47.938;7.758;2023-02-04T00:09:27;3.75;;;1.92;;
28844;SDS011;15976;47.938;7.758;2023-02-04T00:11:54;2.42;;;1.92;;
28844;SDS011;15976;47.938;7.758;2023-02-04T00:14:21;4.25;;;2.33;;
28844;SDS011;15976;47.938;7.758;2023-02-04T00:16:48;3.40;;;2.22;;
28844;SDS011;15976;47.938;7.758;2023-02-04T00:19:15;5.03;;;2.45;;
28844;SDS011;15976;47.938;7.758;2023-02-04T00:21:42;4.75;;;2.42;;
28844;SDS011;15976;47.938;7.758;2023-02-04T00:24:09;2.90;;;1.95;;
28844;SDS011;15976;47.938;7.758;2023-02-04T00:26:36;5.00;;;1.98;;
28844;SDS011;15976;47.938;7.758;2023-02-04T00:29:03;3.05;;;2.40;;
28844;SDS011;15976;47.938;7.758;2023-02-04T00:31:30;4.75;;;2.40;;
28844;SDS011;15976;47.938;7.758;2023-02-04T00:33:59;4.72;;;2.47;;
28844;SDS011;15976;47.938;7.758;2023-02-04T00:36:26;4.97;;;2.30;;
28844;SDS011;15976;47.938;7.758;2023-02-04T00:38:53;5.50;;;2.60;;
28844;SDS011;15976;47.938;7.758;2023-02-04T00:41:20;4.43;;;3.03;;
28844;SDS011;15976;47.938;7.758;2023-02-04T00:43:47;3.60;;;2.50;;
28844;SDS011;15976;47.938;7.758;2023-02-04T00:46:14;4.22;;;2.67;;
28844;SDS011;15976;47.938;7.758;2023-02-04T00:48:41;3.50;;;2.40;;
28844;SDS011;15976;47.938;7.758;2023-02-04T00:51:08;4.30;;;2.67;;
28844;SDS011;15976;47.938;7.758;2023-02-04T00:53:35;5.55;;;2.38;;
28844;SDS011;15976;47.938;7.758;2023-02-04T00:56:02;3.63;;;2.58;;
28844;SDS011;15976;47.938;7.758;2023-02-04T00:58:29;4.28;;;2.78;;
28844;SDS011;15976;47.938;7.758;2023-02-04T01:00:56;6.93;;;2.97;;
28844;SDS011;15976;47.938;7.758;2023-02-04T01:03:23;5.47;;;3.35;;
28844;SDS011;15976;47.938;7.758;2023-02-04T01:05:50;7.07;;;2.78;;
28844;SDS011;15976;47.938;7.758;2023-02-04T01:08:17;5.72;;;2.80;;
28844;SDS011;15976;47.938;7.758;2023-02-04T01:10:45;3.63;;;2.67;;
28844;SDS011;15976;47.938;7.758;2023-02-04T01:13:12;3.05;;;2.60;;
28844;SDS011;15976;47.938;7.758;2023-02-04T01:15:40;4.60;;;2.83;;
28844;SDS011;15976;47.938;7.758;2023-02-04T01:18:07;6.00;;;3.10;;
28844;SDS011;15976;47.938;7.758;2023-02-04T01:20:34;4.85;;;3.25;;
28844;SDS011;15976;47.938;7.758;2023-02-04T01:23:01;4.07;;;2.88;;
28844;SDS011;15976;47.938;7.758;2023-02-04T01:25:28;4.80;;;3.15;;
28844;SDS011;15976;47.938;7.758;2023-02-04T01:27:56;2.97;;;2.55;;
28844;SDS011;15976;47.938;7.758;2023-02-04T01:30:23;4.28;;;3.10;;
28844;SDS011;15976;47.938;7.758;2023-02-04T01:32:50;6.38;;;2.78;;
28844;SDS011;15976;47.938;7.758;2023-02-04T01:35:17;4.38;;;3.00;;
28844;SDS011;15976;47.938;7.758;2023-02-04T01:37:44;5.82;;;3.00;;
28844;SDS011;15976;47.938;7.758;2023-02-04T01:40:12;3.72;;;2.50;;
28844;SDS011;15976;47.938;7.758;2023-02-04T01:42:39;4.32;;;2.95;;
28844;SDS011;15976;47.938;7.758;2023-02-04T01:45:07;3.78;;;2.90;;
28844;SDS011;15976;47.938;7.758;2023-02-04T01:47:34;3.33;;;3.00;;
28844;SDS011;15976;47.938;7.758;2023-02-04T01:50:04;8.20;;;3.33;;
28844;SDS011;15976;47.938;7.758;2023-02-04T01:52:36;6.00;;;3.20;;
28844;SDS011;15976;47.938;7.758;2023-02-04T01:55:15;6.40;;;3.50;;
28844;SDS011;15976;47.938;7.758;2023-02-04T01:57:44;5.32;;;3.20;;
28844;SDS011;15976;47.938;7.758;2023-02-04T02:00:16;4.93;;;2.63;;
28844;SDS011;15976;47.938;7.758;2023-02-04T02:02:50;3.75;;;3.05;;
28844;SDS011;15976;47.938;7.758;2023-02-04T02:05:22;4.22;;;3.25;;
28844;SDS011;15976;47.938;7.758;2023-02-04T02:07:57;3.97;;;2.97;;
28844;SDS011;15976;47.938;7.758;2023-02-04T02:10:25;3.47;;;2.63;;
28844;SDS011;15976;47.938;7.758;2023-02-04T02:12:53;5.40;;;3.22;;
28844;SDS011;15976;47.938;7.758;2023-02-04T02:15:21;5.20;;;3.35;;
28844;SDS011;15976;47.938;7.758;2023-02-04T02:17:49;5.38;;;3.22;;
28844;SDS011;15976;47.938;7.758;2023-02-04T02:20:18;4.97;;;3.53;;
28844;SDS011;15976;47.938;7.758;2023-02-04T02:25:53;2.60;;;2.40;;
28844;SDS011;15976;47.938;7.758;2023-02-04T02:28:21;5.63;;;2.90;;
28844;SDS011;15976;47.938;7.758;2023-02-04T02:30:49;4.13;;;3.40;;
28844;SDS011;15976;47.938;7.758;2023-02-04T02:33:18;4.97;;;3.53;;
28844;SDS011;15976;47.938;7.758;2023-02-04T02:35:46;5.65;;;3.42;;
28844;SDS011;15976;47.938;7.758;2023-02-04T02:38:14;5.50;;;3.00;;
28844;SDS011;15976;47.938;7.758;2023-02-04T02:40:43;4.47;;;2.95;;
28844;SDS011;15976;47.938;7.758;2023-02-04T02:43:15;3.60;;;2.92;;
28844;SDS011;15976;47.938;7.758;2023-02-04T02:45:44;3.47;;;2.42;;
28844;SDS011;15976;47.938;7.758;2023-02-04T02:48:12;3.55;;;2.90;;
28844;SDS011;15976;47.938;7.758;2023-02-04T02:50:39;4.22;;;3.00;;
28844;SDS011;15976;47.938;7.758;2023-02-04T02:53:09;2.88;;;2.55;;
28844;SDS011;15976;47.938;7.758;2023-02-04T02:55:38;4.43;;;2.80;;
28844;SDS011;15976;47.938;7.758;2023-02-04T02:58:11;4.20;;;2.50;;
28844;SDS011;15976;47.938;7.758;2023-02-04T03:00:43;3.28;;;2.70;;
28844;SDS011;15976;47.938;7.758;2023-02-04T03:03:12;4.22;;;2.55;;
28844;SDS011;15976;47.938;7.758;2023-02-04T03:05:45;3.58;;;2.60;;
28844;SDS011;15976;47.938;7.758;2023-02-04T03:08:15;2.92;;;2.40;;
28844;SDS011;15976;47.938;7.758;2023-02-04T03:10:44;2.50;;;2.30;;
28844;SDS011;15976;47.938;7.758;2023-02-04T03:13:12;3.42;;;2.75;;
28844;SDS011;15976;47.938;7.758;2023-02-04T03:15:41;2.58;;;2.13;;
28844;SDS011;15976;47.938;7.758;2023-02-04T03:18:11;2.92;;;2.30;;
28844;SDS011;15976;47.938;7.758;2023-02-04T03:20:41;3.45;;;2.50;;
28844;SDS011;15976;47.938;7.758;2023-02-04T03:23:08;4.18;;;2.25;;
28844;SDS011;15976;47.938;7.758;2023-02-04T03:25:37;2.85;;;2.40;;
28844;SDS011;15976;47.938;7.758;2023-02-04T03:28:05;3.45;;;2.33;;
28844;SDS011;15976;47.938;7.758;2023-02-04T03:30:32;3.45;;;2.45;;
28844;SDS011;15976;47.938;7.758;2023-02-04T03:32:59;3.28;;;2.35;;
28844;SDS011;15976;47.938;7.758;2023-02-04T03:35:26;4.53;;;2.80;;
28844;SDS011;15976;47.938;7.758;2023-02-04T03:37:53;2.78;;;2.45;;
28844;SDS011;15976;47.938;7.758;2023-02-04T03:40:20;2.90;;;2.30;;
28844;SDS011;15976;47.938;7.758;2023-02-04T03:42:47;2.92;;;2.47;;
28844;SDS011;15976;47.938;7.758;2023-02-04T03:45:14;2.72;;;2.53;;
28844;SDS011;15976;47.938;7.758;2023-02-04T03:47:42;3.00;;;2.70;;
28844;SDS011;15976;47.938;7.758;2023-02-04T03:50:08;3.42;;;2.35;;
28844;SDS011;15976;47.938;7.758;2023-02-04T03:52:38;4.70;;;2.67;;
28844;SDS011;15976;47.938;7.758;2023-02-04T03:55:05;3.72;;;2.70;;
28844;SDS011;15976;47.938;7.758;2023-02-04T03:57:32;4.13;;;2.75;;
28844;SDS011;15976;47.938;7.758;2023-02-04T03:59:59;3.00;;;2.70;;
28844;SDS011;15976;47.938;7.758;2023-02-04T04:02:37;7.97;;;2.58;;
28844;SDS011;15976;47.938;7.758;2023-02-04T04:05:04;2.67;;;2.47;;
28844;SDS011;15976;47.938;7.758;2023-02-04T04:07:32;5.28;;;2.42;;
28844;SDS011;15976;47.938;7.758;2023-02-04T04:09:59;4.22;;;2.70;;
28844;SDS011;15976;47.938;7.758;2023-02-04T04:12:26;3.83;;;2.45;;
28844;SDS011;15976;47.938;7.758;2023-02-04T04:14:53;3.83;;;2.30;;
28844;SDS011;15976;47.938;7.758;2023-02-04T04:17:20;4.32;;;2.65;;
28844;SDS011;15976;47.938;7.758;2023-02-04T04:19:47;3.80;;;2.72;;
28844;SDS011;15976;47.938;7.758;2023-02-04T04:22:14;3.65;;;2.90;;
28844;SDS011;15976;47.938;7.758;2023-02-04T04:24:41;3.78;;;3.03;;
28844;SDS011;15976;47.938;7.758;2023-02-04T04:27:08;4.22;;;3.30;;
28844;SDS011;15976;47.938;7.758;2023-02-04T04:29:35;4.15;;;3.38;;
28844;SDS011;15976;47.938;7.758;2023-02-04T04:32:02;3.85;;;2.80;;
28844;SDS011;15976;47.938;7.758;2023-02-04T04:34:30;6.10;;;3.10;;
28844;SDS011;15976;47.938;7.758;2023-02-04T04:36:57;3.58;;;2.70;;
28844;SDS011;15976;47.938;7.758;2023-02-04T04:39:24;3.40;;;2.60;;
28844;SDS011;15976;47.938;7.758;2023-02-04T04:41:51;2.40;;;2.20;;
28844;SDS011;15976;47.938;7.758;2023-02-04T04:44:18;4.43;;;3.22;;
28844;SDS011;15976;47.938;7.758;2023-02-04T04:46:45;3.65;;;2.60;;
28844;SDS011;15976;47.938;7.758;2023-02-04T04:49:12;3.75;;;2.67;;
28844;SDS011;15976;47.938;7.758;2023-02-04T04:51:39;3.25;;;2.60;;
28844;SDS011;15976;47.938;7.758;2023-02-04T04:54:06;2.70;;;2.42;;
28844;SDS011;15976;47.938;7.758;2023-02-04T04:56:33;4.38;;;2.60;;
28844;SDS011;15976;47.938;7.758;2023-02-04T04:59:00;3.38;;;2.38;;
28844;SDS011;15976;47.938;7.758;2023-02-04T05:01:28;2.78;;;2.58;;
28844;SDS011;15976;47.938;7.758;2023-02-04T05:03:55;3.65;;;2.75;;
28844;SDS011;15976;47.938;7.758;2023-02-04T05:06:22;3.42;;;3.03;;
28844;SDS011;15976;47.938;7.758;2023-02-04T05:08:51;4.70;;;3.17;;
28844;SDS011;15976;47.938;7.758;2023-02-04T05:11:18;3.28;;;2.55;;
28844;SDS011;15976;47.938;7.758;2023-02-04T05:13:46;3.90;;;2.80;;
28844;SDS011;15976;47.938;7.758;2023-02-04T05:16:13;3.47;;;2.70;;
28844;SDS011;15976;47.938;7.758;2023-02-04T05:18:44;2.80;;;2.50;;
28844;SDS011;15976;47.938;7.758;2023-02-04T05:21:11;3.70;;;3.30;;
28844;SDS011;15976;47.938;7.758;2023-02-04T05:23:38;3.80;;;2.67;;
28844;SDS011;15976;47.938;7.758;2023-02-04T05:26:05;4.72;;;2.80;;
28844;SDS011;15976;47.938;7.758;2023-02-04T05:28:32;3.72;;;2.75;;
28844;SDS011;15976;47.938;7.758;2023-02-04T05:30:59;3.35;;;2.88;;
28844;SDS011;15976;47.938;7.758;2023-02-04T05:33:26;4.80;;;3.25;;
28844;SDS011;15976;47.938;7.758;2023-02-04T05:35:53;3.83;;;3.20;;
28844;SDS011;15976;47.938;7.758;2023-02-04T05:38:20;4.03;;;2.95;;
28844;SDS011;15976;47.938;7.758;2023-02-04T05:40:47;3.53;;;2.92;;
28844;SDS011;15976;47.938;7.758;2023-02-04T05:43:14;3.72;;;3.20;;
28844;SDS011;15976;47.938;7.758;2023-02-04T05:45:41;3.40;;;2.75;;
28844;SDS011;15976;47.938;7.758;2023-02-04T05:48:08;15.68;;;4.32;;
28844;SDS011;15976;47.938;7.758;2023-02-04T05:50:35;4.20;;;3.55;;
28844;SDS011;15976;47.938;7.758;2023-02-04T05:53:08;3.28;;;2.95;;
28844;SDS011;15976;47.938;7.758;2023-02-04T05:55:35;3.25;;;2.85;;
28844;SDS011;15976;47.938;7.758;2023-02-04T05:58:02;4.07;;;3.25;;
28844;SDS011;15976;47.938;7.758;2023-02-04T06:00:29;4.20;;;3.28;;
28844;SDS011;15976;47.938;7.758;2023-02-04T06:02:57;4.30;;;3.60;;
28844;SDS011;15976;47.938;7.758;2023-02-04T06:05:24;4.35;;;3.22;;
28844;SDS011;15976;47.938;7.758;2023-02-04T06:07:51;4.30;;;3.03;;
28844;SDS011;15976;47.938;7.758;2023-02-04T06:10:18;4.28;;;3.17;;
28844;SDS011;15976;47.938;7.758;2023-02-04T06:12:46;5.75;;;3.25;;
28844;SDS011;15976;47.938;7.758;2023-02-04T06:15:14;3.80;;;3.03;;
28844;SDS011;15976;47.938;7.758;2023-02-04T06:17:41;4.43;;;3.10;;
28844;SDS011;15976;47.938;7.758;2023-02-04T06:20:09;4.22;;;3.47;;
28844;SDS011;15976;47.938;7.758;2023-02-04T06:22:38;4.50;;;3.30;;
28844;SDS011;15976;47.938;7.758;2023-02-04T06:25:05;3.72;;;3.20;;
28844;SDS011;15976;47.938;7.758;2023-02-04T06:27:32;6.72;;;3.63;;
28844;SDS011;15976;47.938;7.758;2023-02-04T06:30:00;4.28;;;3.30;;
28844;SDS011;15976;47.938;7.758;2023-02-04T06:32:27;6.30;;;3.65;;
28844;SDS011;15976;47.938;7.758;2023-02-04T06:34:53;5.53;;;3.95;;
28844;SDS011;15976;47.938;7.758;2023-02-04T06:37:20;5.25;;;3.50;;
28844;SDS011;15976;47.938;7.758;2023-02-04T06:39:49;4.10;;;3.15;;
28844;SDS011;15976;47.938;7.758;2023-02-04T06:42:17;4.30;;;3.25;;
28844;SDS011;15976;47.938;7.758;2023-02-04T06:44:44;4.15;;;3.22;;
28844;SDS011;15976;47.938;7.758;2023-02-04T06:47:11;3.53;;;3.17;;
28844;SDS011;15976;47.938;7.758;2023-02-04T06:49:38;5.43;;;4.13;;
28844;SDS011;15976;47.938;7.758;2023-02-04T06:52:05;4.25;;;3.35;;
28844;SDS011;15976;47.938;7.758;2023-02-04T06:54:32;4.25;;;3.42;;
28844;SDS011;15976;47.938;7.758;2023-02-04T06:56:59;4.93;;;3.60;;
28844;SDS011;15976;47.938;7.758;2023-02-04T06:59:33;4.90;;;4.07;;
28844;SDS011;15976;47.938;7.758;2023-02-04T07:02:01;4.20;;;2.92;;
28844;SDS011;15976;47.938;7.758;2023-02-04T07:04:29;3.92;;;3.15;;
28844;SDS011;15976;47.938;7.758;2023-02-04T07:06:56;3.70;;;3.35;;
28844;SDS011;15976;47.938;7.758;2023-02-04T07:09:23;5.47;;;2.78;;
28844;SDS011;15976;47.938;7.758;2023-02-04T07:11:51;4.15;;;3.05;;
28844;SDS011;15976;47.938;7.758;2023-02-04T07:14:18;3.72;;;3.25;;
28844;SDS011;15976;47.938;7.758;2023-02-04T07:16:45;4.50;;;3.03;;
28844;SDS011;15976;47.938;7.758;2023-02-04T07:19:12;4.20;;;3.17;;
28844;SDS011;15976;47.938;7.758;2023-02-04T07:21:39;5.03;;;4.25;;
28844;SDS011;15976;47.938;7.758;2023-02-04T07:24:06;10.48;;;7.05;;
28844;SDS011;15976;47.938;7.758;2023-02-04T07:26:33;81.40;;;32.03;;
28844;SDS011;15976;47.938;7.758;2023-02-04T07:29:00;65.88;;;27.95;;
28844;SDS011;15976;47.938;7.758;2023-02-04T07:31:26;50.33;;;21.95;;
28844;SDS011;15976;47.938;7.758;2023-02-04T07:33:54;13.73;;;6.72;;
28844;SDS011;15976;47.938;7.758;2023-02-04T07:36:21;6.95;;;4.15;;
28844;SDS011;15976;47.938;7.758;2023-02-04T07:38:48;6.43;;;3.78;;
28844;SDS011;15976;47.938;7.758;2023-02-04T07:41:14;18.20;;;9.05;;
28844;SDS011;15976;47.938;7.758;2023-02-04T07:43:42;7.70;;;4.75;;
28844;SDS011;15976;47.938;7.758;2023-02-04T07:46:09;8.48;;;4.13;;
28844;SDS011;15976;47.938;7.758;2023-02-04T07:48:36;20.80;;;11.00;;
28844;SDS011;15976;47.938;7.758;2023-02-04T07:51:03;20.00;;;10.60;;
28844;SDS011;15976;47.938;7.758;2023-02-04T07:53:29;15.70;;;8.57;;
28844;SDS011;15976;47.938;7.758;2023-02-04T07:55:56;10.93;;;6.55;;
28844;SDS011;15976;47.938;7.758;2023-02-04T07:58:23;12.48;;;7.18;;
28844;SDS011;15976;47.938;7.758;2023-02-04T08:00:50;10.77;;;7.22;;
28844;SDS011;15976;47.938;7.758;2023-02-04T08:03:17;11.60;;;7.05;;
28844;SDS011;15976;47.938;7.758;2023-02-04T08:05:44;14.70;;;8.02;;
28844;SDS011;15976;47.938;7.758;2023-02-04T08:08:11;15.25;;;8.18;;
28844;SDS011;15976;47.938;7.758;2023-02-04T08:10:38;10.77;;;6.35;;
28844;SDS011;15976;47.938;7.758;2023-02-04T08:13:05;12.18;;;7.88;;
28844;SDS011;15976;47.938;7.758;2023-02-04T08:15:32;13.77;;;9.27;;
28844;SDS011;15976;47.938;7.758;2023-02-04T08:17:59;15.27;;;9.88;;
28844;SDS011;15976;47.938;7.758;2023-02-04T08:20:26;14.57;;;9.80;;
28844;SDS011;15976;47.938;7.758;2023-02-04T08:22:53;14.18;;;8.60;;
28844;SDS011;15976;47.938;7.758;2023-02-04T08:25:20;16.02;;;11.10;;
28844;SDS011;15976;47.938;7.758;2023-02-04T08:27:47;12.40;;;8.73;;
28844;SDS011;15976;47.938;7.758;2023-02-04T08:30:14;14.10;;;10.10;;
28844;SDS011;15976;47.938;7.758;2023-02-04T08:32:42;18.73;;;10.85;;
28844;SDS011;15976;47.938;7.758;2023-02-04T08:35:09;17.90;;;10.88;;
28844;SDS011;15976;47.938;7.758;2023-02-04T08:37:36;13.80;;;9.57;;
28844;SDS011;15976;47.938;7.758;2023-02-04T08:40:03;14.65;;;9.60;;
28844;SDS011;15976;47.938;7.758;2023-02-04T08:42:30;15.30;;;10.30;;
28844;SDS011;15976;47.938;7.758;2023-02-04T08:44:58;16.25;;;11.80;;
28844;SDS011;15976;47.938;7.758;2023-02-04T08:47:25;14.00;;;9.60;;
28844;SDS011;15976;47.938;7.758;2023-02-04T08:49:52;11.90;;;8.25;;
28844;SDS011;15976;47.938;7.758;2023-02-04T08:52:19;10.88;;;8.00;;
28844;SDS011;15976;47.938;7.758;2023-02-04T08:54:46;14.27;;;8.23;;
28844;SDS011;15976;47.938;7.758;2023-02-04T08:57:13;9.05;;;6.32;;
28844;SDS011;15976;47.938;7.758;2023-02-04T08:59:40;9.88;;;7.00;;
28844;SDS011;15976;47.938;7.758;2023-02-04T09:02:10;7.32;;;5.25;;
28844;SDS011;15976;47.938;7.758;2023-02-04T09:04:37;10.98;;;8.63;;
28844;SDS011;15976;47.938;7.758;2023-02-04T09:07:05;10.02;;;7.85;;
28844;SDS011;15976;47.938;7.758;2023-02-04T09:09:32;10.85;;;8.70;;
28844;SDS011;15976;47.938;7.758;2023-02-04T09:11:59;9.07;;;7.85;;
28844;SDS011;15976;47.938;7.758;2023-02-04T09:14:27;6.50;;;5.50;;
28844;SDS011;15976;47.938;7.758;2023-02-04T09:16:54;6.85;;;4.85;;
28844;SDS011;15976;47.938;7.758;2023-02-04T09:19:21;7.93;;;5.30;;
28844;SDS011;15976;47.938;7.758;2023-02-04T09:21:51;7.28;;;5.35;;
28844;SDS011;15976;47.938;7.758;2023-02-04T09:24:19;7.82;;;5.22;;
28844;SDS011;15976;47.938;7.758;2023-02-04T09:26:49;5.57;;;4.40;;
28844;SDS011;15976;47.938;7.758;2023-02-04T09:29:16;8.98;;;6.40;;
28844;SDS011;15976;47.938;7.758;2023-02-04T09:31:43;8.45;;;5.70;;
28844;SDS011;15976;47.938;7.758;2023-02-04T09:34:10;9.45;;;6.47;;
28844;SDS011;15976;47.938;7.758;2023-02-04T09:36:37;8.85;;;6.10;;
28844;SDS011;15976;47.938;7.758;2023-02-04T09:39:05;7.15;;;5.55;;
28844;SDS011;15976;47.938;7.758;2023-02-04T09:41:37;8.68;;;6.10;;
28844;SDS011;15976;47.938;7.758;2023-02-04T09:44:08;6.80;;;5.55;;
28844;SDS011;15976;47.938;7.758;2023-02-04T09:46:41;6.45;;;5.68;;
28844;SDS011;15976;47.938;7.758;2023-02-04T09:49:16;10.07;;;5.50;;
28844;SDS011;15976;47.938;7.758;2023-02-04T09:51:44;7.25;;;5.72;;
28844;SDS011;15976;47.938;7.758;2023-02-04T09:54:14;8.73;;;5.60;;
28844;SDS011;15976;47.938;7.758;2023-02-04T09:56:43;10.77;;;6.55;;
28844;SDS011;15976;47.938;7.758;2023-02-04T09:59:12;10.85;;;7.10;;
28844;SDS011;15976;47.938;7.758;2023-02-04T10:01:41;7.97;;;5.53;;
28844;SDS011;15976;47.938;7.758;2023-02-04T10:04:09;7.28;;;5.28;;
28844;SDS011;15976;47.938;7.758;2023-02-04T10:06:39;8.48;;;5.53;;
28844;SDS011;15976;47.938;7.758;2023-02-04T10:09:08;8.00;;;6.22;;
28844;SDS011;15976;47.938;7.758;2023-02-04T10:11:37;8.80;;;6.30;;
28844;SDS011;15976;47.938;7.758;2023-02-04T10:14:09;8.88;;;6.63;;
28844;SDS011;15976;47.938;7.758;2023-02-04T10:16:41;9.98;;;6.30;;
28844;SDS011;15976;47.938;7.758;2023-02-04T10:19:16;9.48;;;6.25;;
28844;SDS011;15976;47.938;7.758;2023-02-04T10:21:43;9.00;;;6.38;;
28844;SDS011;15976;47.938;7.758;2023-02-04T10:24:13;7.60;;;5.70;;
28844;SDS011;15976;47.938;7.758;2023-02-04T10:26:47;20.85;;;9.98;;
28844;SDS011;15976;47.938;7.758;2023-02-04T10:29:16;7.88;;;6.00;;
28844;SDS011;15976;47.938;7.758;2023-02-04T10:31:45;9.07;;;5.75;;
28844;SDS011;15976;47.938;7.758;2023-02-04T10:34:32;9.23;;;6.30;;
28844;SDS011;15976;47.938;7.758;2023-02-04T10:37:20;7.63;;;5.32;;
28844;SDS011;15976;47.938;7.758;2023-02-04T10:39:48;6.22;;;4.90;;
28844;SDS011;15976;47.938;7.758;2023-02-04T10:42:26;13.18;;;5.97;;
28844;SDS011;15976;47.938;7.758;2023-02-04T10:44:55;16.42;;;12.27;;
28844;SDS011;15976;47.938;7.758;2023-02-04T10:47:23;9.75;;;6.25;;
28844;SDS011;15976;47.938;7.758;2023-02-04T10:49:52;10.80;;;6.75;;
28844;SDS011;15976;47.938;7.758;2023-02-04T10:52:20;10.40;;;7.40;;
28844;SDS011;15976;47.938;7.758;2023-02-04T10:54:49;9.93;;;6.90;;
28844;SDS011;15976;47.938;7.758;2023-02-04T10:57:21;11.00;;;7.03;;
28844;SDS011;15976;47.938;7.758;2023-02-04T10:59:56;9.80;;;5.68;;
28844;SDS011;15976;47.938;7.758;2023-02-04T11:05:09;12.63;;;5.93;;
28844;SDS011;15976;47.938;7.758;2023-02-04T11:07:41;7.75;;;5.97;;
28844;SDS011;15976;47.938;7.758;2023-02-04T11:10:13;9.60;;;6.78;;
28844;SDS011;15976;47.938;7.758;2023-02-04T11:18:11;8.93;;;6.82;;
28844;SDS011;15976;47.938;7.758;2023-02-04T11:21:00;8.60;;;6.50;;
28844;SDS011;15976;47.938;7.758;2023-02-04T11:23:29;8.60;;;6.00;;
28844;SDS011;15976;47.938;7.758;2023-02-04T11:26:09;8.85;;;6.07;;
28844;SDS011;15976;47.938;7.758;2023-02-04T11:33:49;12.20;;;8.68;;
28844;SDS011;15976;47.938;7.758;2023-02-04T11:36:28;13.48;;;9.45;;
28844;SDS011;15976;47.938;7.758;2023-02-04T11:38:56;6.75;;;4.20;;
28844;SDS011;15976;47.938;7.758;2023-02-04T11:41:36;7.20;;;4.68;;
28844;SDS011;15976;47.938;7.758;2023-02-04T11:44:03;6.10;;;5.10;;
28844;SDS011;15976;47.938;7.758;2023-02-04T11:46:34;4.68;;;3.40;;
28844;SDS011;15976;47.938;7.758;2023-02-04T11:49:01;6.18;;;3.85;;
28844;SDS011;15976;47.938;7.758;2023-02-04T11:51:32;4.60;;;2.90;;
28844;SDS011;15976;47.938;7.758;2023-02-04T11:54:00;8.00;;;3.53;;
28844;SDS011;15976;47.938;7.758;2023-02-04T11:56:27;4.45;;;2.90;;
28844;SDS011;15976;47.938;7.758;2023-02-04T11:58:56;3.10;;;2.78;;
28844;SDS011;15976;47.938;7.758;2023-02-04T12:01:28;7.97;;;4.85;;
28844;SDS011;15976;47.938;7.758;2023-02-04T12:06:29;4.30;;;2.78;;
28844;SDS011;15976;47.938;7.758;2023-02-04T12:09:04;6.95;;;3.60;;
28844;SDS011;15976;47.938;7.758;2023-02-04T12:11:50;3.13;;;2.15;;
28844;SDS011;15976;47.938;7.758;2023-02-04T12:14:34;5.85;;;2.58;;
28844;SDS011;15976;47.938;7.758;2023-02-04T12:17:15;2.95;;;2.28;;
28844;SDS011;15976;47.938;7.758;2023-02-04T12:19:46;3.72;;;2.58;;
28844;SDS011;15976;47.938;7.758;2023-02-04T12:22:13;2.50;;;1.90;;
28844;SDS011;15976;47.938;7.758;2023-02-04T12:24:41;3.58;;;2.05;;
28844;SDS011;15976;47.938;7.758;2023-02-04T12:27:09;3.60;;;2.15;;
28844;SDS011;15976;47.938;7.758;2023-02-04T12:29:36;6.70;;;2.92;;
28844;SDS011;15976;47.938;7.758;2023-02-04T12:32:03;3.80;;;2.33;;
28844;SDS011;15976;47.938;7.758;2023-02-04T12:34:30;5.70;;;2.17;;
28844;SDS011;15976;47.938;7.758;2023-02-04T12:36:57;3.03;;;2.15;;
28844;SDS011;15976;47.938;7.758;2023-02-04T12:39:24;5.22;;;2.22;;
28844;SDS011;15976;47.938;7.758;2023-02-04T12:41:52;4.55;;;2.30;;
28844;SDS011;15976;47.938;7.758;2023-02-04T12:44:19;3.03;;;2.42;;
28844;SDS011;15976;47.938;7.758;2023-02-04T12:46:46;5.20;;;2.40;;
28844;SDS011;15976;47.938;7.758;2023-02-04T12:49:13;7.05;;;2.42;;
28844;SDS011;15976;47.938;7.758;2023-02-04T12:51:40;5.32;;;2.28;;
28844;SDS011;15976;47.938;7.758;2023-02-04T12:54:07;7.32;;;3.05;;
28844;SDS011;15976;47.938;7.758;2023-02-04T12:56:34;6.93;;;2.58;;
28844;SDS011;15976;47.938;7.758;2023-02-04T12:59:01;5.50;;;2.80;;
28844;SDS011;15976;47.938;7.758;2023-02-04T13:01:28;2.92;;;2.33;;
28844;SDS011;15976;47.938;7.758;2023-02-04T13:03:55;5.63;;;2.40;;
28844;SDS011;15976;47.938;7.758;2023-02-04T13:06:23;5.97;;;2.30;;
28844;SDS011;15976;47.938;7.758;2023-02-04T13:08:50;7.47;;;2.85;;
28844;SDS011;15976;47.938;7.758;2023-02-04T13:11:17;5.15;;;2.40;;
28844;SDS011;15976;47.938;7.758;2023-02-04T13:13:44;9.00;;;2.80;;
28844;SDS011;15976;47.938;7.758;2023-02-04T13:16:11;7.18;;;2.90;;
28844;SDS011;15976;47.938;7.758;2023-02-04T13:18:38;9.68;;;3.20;;
28844;SDS011;15976;47.938;7.758;2023-02-04T13:21:05;8.63;;;3.58;;
28844;SDS011;15976;47.938;7.758;2023-02-04T13:23:32;9.73;;;3.28;;
28844;SDS011;15976;47.938;7.758;2023-02-04T13:25:59;7.95;;;3.20;;
28844;SDS011;15976;47.938;7.758;2023-02-04T13:28:32;10.57;;;4.53;;
28844;SDS011;15976;47.938;7.758;2023-02-04T13:30:59;7.90;;;3.65;;
28844;SDS011;15976;47.938;7.758;2023-02-04T13:33:29;5.65;;;2.88;;
28844;SDS011;15976;47.938;7.758;2023-02-04T13:35:57;14.57;;;8.93;;
28844;SDS011;15976;47.938;7.758;2023-02-04T13:38:24;11.60;;;4.72;;
28844;SDS011;15976;47.938;7.758;2023-02-04T13:40:53;11.07;;;4.55;;
28844;SDS011;15976;47.938;7.758;2023-02-04T13:43:20;8.73;;;4.90;;
28844;SDS011;15976;47.938;7.758;2023-02-04T13:45:50;12.02;;;3.65;;
28844;SDS011;15976;47.938;7.758;2023-02-04T13:48:18;7.40;;;3.30;;
28844;SDS011;15976;47.938;7.758;2023-02-04T13:50:45;9.20;;;3.47;;
28844;SDS011;15976;47.938;7.758;2023-02-04T13:53:19;11.68;;;4.05;;
28844;SDS011;15976;47.938;7.758;2023-02-04T13:55:49;14.50;;;4.03;;
28844;SDS011;15976;47.938;7.758;2023-02-04T13:58:19;9.00;;;4.40;;
28844;SDS011;15976;47.938;7.758;2023-02-04T14:00:46;7.82;;;3.60;;
28844;SDS011;15976;47.938;7.758;2023-02-04T14:03:13;7.85;;;3.17;;
28844;SDS011;15976;47.938;7.758;2023-02-04T14:05:40;8.88;;;4.05;;
28844;SDS011;15976;47.938;7.758;2023-02-04T14:08:07;10.07;;;4.22;;
28844;SDS011;15976;47.938;7.758;2023-02-04T14:10:34;10.07;;;3.88;;
28844;SDS011;15976;47.938;7.758;2023-02-04T14:13:03;9.65;;;3.90;;
28844;SDS011;15976;47.938;7.758;2023-02-04T14:15:31;11.63;;;4.03;;
28844;SDS011;15976;47.938;7.758;2023-02-04T14:17:59;13.38;;;4.85;;
28844;SDS011;15976;47.938;7.758;2023-02-04T14:20:27;9.68;;;4.20;;
28844;SDS011;15976;47.938;7.758;2023-02-04T14:22:54;11.70;;;4.72;;
28844;SDS011;15976;47.938;7.758;2023-02-04T14:25:21;14.50;;;5.63;;
28844;SDS011;15976;47.938;7.758;2023-02-04T14:27:48;13.32;;;4.57;;
28844;SDS011;15976;47.938;7.758;2023-02-04T14:30:16;11.52;;;5.30;;
28844;SDS011;15976;47.938;7.758;2023-02-04T14:32:45;12.68;;;4.10;;
28844;SDS011;15976;47.938;7.758;2023-02-04T14:35:13;7.75;;;3.40;;
28844;SDS011;15976;47.938;7.758;2023-02-04T14:37:40;13.23;;;4.00;;
28844;SDS011;15976;47.938;7.758;2023-02-04T14:40:07;8.40;;;3.67;;
28844;SDS011;15976;47.938;7.758;2023-02-04T14:42:36;10.73;;;4.22;;
28844;SDS011;15976;47.938;7.758;2023-02-04T14:45:04;10.23;;;3.83;;
28844;SDS011;15976;47.938;7.758;2023-02-04T14:47:33;12.10;;;3.63;;
28844;SDS011;15976;47.938;7.758;2023-02-04T14:50:00;12.13;;;3.80;;
28844;SDS011;15976;47.938;7.758;2023-02-04T14:52:28;9.07;;;3.70;;
28844;SDS011;15976;47.938;7.758;2023-02-04T14:54:55;10.10;;;3.97;;
28844;SDS011;15976;47.938;7.758;2023-02-04T14:57:22;16.52;;;4.93;;
28844;SDS011;15976;47.938;7.758;2023-02-04T14:59:49;14.02;;;4.72;;
28844;SDS011;15976;47.938;7.758;2023-02-04T15:02:16;11.75;;;3.80;;
28844;SDS011;15976;47.938;7.758;2023-02-04T15:04:43;10.90;;;4.50;;
28844;SDS011;15976;47.938;7.758;2023-02-04T15:07:11;13.57;;;5.40;;
28844;SDS011;15976;47.938;7.758;2023-02-04T15:09:38;8.43;;;4.47;;
28844;SDS011;15976;47.938;7.758;2023-02-04T15:12:05;13.27;;;4.53;;